Time;durP1;ratioP1;P1;durP2;ratioP2;P2;SDS_P1;SDS_P2;PMS_P1;PMS_P2;Temp;Humidity;BMP_temperature;BMP_pressure;BME280_temperature;BME280_humidity;BME280_pressure;Samples;Min_cycle;Max_cycle;Signal;HPM_P1;HPM_P2
2022/04/04 00:00:41;;;;;;;12.88;7.03;;;;;;;-0.06;64.47;101353.13;4827163;29;20057;-68
2022/04/04 00:03:07;;;;;;;14.18;7.63;;;;;;;-0.11;64.17;101347.44;4796551;29;20109;-68
2022/04/04 00:05:33;;;;;;;17.90;9.18;;;;;;;-0.14;64.71;101353.31;4804169;29;20027;-68
2022/04/04 00:07:59;;;;;;;17.70;8.85;;;;;;;-0.19;64.31;101350.38;4794053;29;20026;-68
2022/04/04 00:10:24;;;;;;;16.95;9.60;;;;;;;-0.21;64.51;101346.97;4818211;29;20042;-68
2022/04/04 00:12:50;;;;;;;20.40;9.70;;;;;;;-0.25;64.50;101350.13;4813014;29;20039;-68
2022/04/04 00:15:15;;;;;;;20.63;9.18;;;;;;;-0.30;64.69;101349.88;4815716;29;20507;-68
2022/04/04 00:17:41;;;;;;;15.98;9.13;;;;;;;-0.24;64.54;101348.22;4797696;29;20046;-68
2022/04/04 00:20:08;;;;;;;16.58;8.45;;;;;;;-0.33;64.50;101347.56;4816641;29;20035;-68
2022/04/04 00:22:34;;;;;;;18.25;9.27;;;;;;;-0.34;64.43;101343.13;4805908;29;20042;-68
2022/04/04 00:25:00;;;;;;;17.38;8.93;;;;;;;-0.41;64.50;101339.53;4804540;29;20117;-68
2022/04/04 00:27:25;;;;;;;16.40;8.77;;;;;;;-0.41;64.77;101334.06;4811597;29;20030;-68
2022/04/04 00:29:50;;;;;;;16.25;8.35;;;;;;;-0.40;64.44;101333.00;4826973;29;20038;-68
2022/04/04 00:32:16;;;;;;;16.92;8.55;;;;;;;-0.43;64.15;101336.16;4828610;29;20038;-68
2022/04/04 00:34:41;;;;;;;15.07;8.38;;;;;;;-0.46;64.39;101325.66;4819459;29;20046;-68
2022/04/04 00:37:07;;;;;;;15.98;8.13;;;;;;;-0.47;64.40;101313.06;4811491;29;20400;-67
2022/04/04 00:39:32;;;;;;;12.93;7.47;;;;;;;-0.51;64.35;101317.22;4811395;29;20060;-68
2022/04/04 00:41:58;;;;;;;13.00;7.78;;;;;;;-0.56;64.82;101323.25;4830380;29;20049;-68
2022/04/04 00:44:25;;;;;;;13.23;6.85;;;;;;;-0.58;64.60;101311.72;4828999;29;20045;-68
2022/04/04 00:46:50;;;;;;;12.52;6.85;;;;;;;-0.57;64.65;101312.56;4811560;29;20034;-68
2022/04/04 00:49:16;;;;;;;12.52;6.85;;;;;;;-0.63;64.66;101311.47;4826725;29;20038;-68
2022/04/04 00:51:41;;;;;;;10.90;6.60;;;;;;;-0.63;64.75;101305.19;4811091;29;20496;-68
2022/04/04 00:54:07;;;;;;;10.70;6.30;;;;;;;-0.66;64.64;101311.06;4811406;29;20060;-68
2022/04/04 00:56:33;;;;;;;13.23;6.97;;;;;;;-0.68;64.67;101303.06;4793249;29;20039;-69
2022/04/04 00:58:59;;;;;;;10.57;6.28;;;;;;;-0.71;64.60;101301.56;4811518;29;20037;-68
2022/04/04 01:01:25;;;;;;;11.20;6.07;;;;;;;-0.74;64.81;101307.44;4795962;29;20031;-68
2022/04/04 01:03:50;;;;;;;11.32;6.35;;;;;;;-0.78;64.78;101308.00;4811289;29;20050;-68
2022/04/04 01:06:17;;;;;;;13.02;6.15;;;;;;;-0.80;64.96;101305.50;4783788;29;20504;-68
2022/04/04 01:08:43;;;;;;;11.25;6.30;;;;;;;-0.84;64.82;101298.75;4815174;29;20035;-68
2022/04/04 01:11:09;;;;;;;11.98;6.05;;;;;;;-0.85;64.96;101301.69;4782546;29;20034;-68
2022/04/04 01:13:34;;;;;;;11.40;5.88;;;;;;;-0.91;65.22;101298.72;4808112;29;20039;-68
2022/04/04 01:15:59;;;;;;;11.75;6.45;;;;;;;-0.93;65.27;101298.06;4810896;29;20042;-68
2022/04/04 01:18:25;;;;;;;9.45;5.90;;;;;;;-0.92;65.16;101290.72;4823225;29;20023;-68
2022/04/04 01:20:51;;;;;;;8.50;5.35;;;;;;;-0.91;64.97;101296.00;4826129;29;20069;-68
2022/04/04 01:23:23;;;;;;;8.98;5.45;;;;;;;-0.93;65.07;101284.44;4823567;29;20043;-67
2022/04/04 01:25:49;;;;;;;10.80;5.80;;;;;;;-0.97;65.30;101287.78;4794590;29;20489;-68
2022/04/04 01:28:14;;;;;;;8.20;5.57;;;;;;;-1.02;65.63;101290.25;4818061;29;20057;-68
2022/04/04 01:30:40;;;;;;;9.25;5.40;;;;;;;-1.04;65.53;101278.69;4815830;29;20518;-68
2022/04/04 01:33:06;;;;;;;13.27;6.13;;;;;;;-1.06;65.49;101278.03;4811735;29;20030;-69
2022/04/04 01:35:32;;;;;;;9.68;5.50;;;;;;;-1.10;65.77;101276.75;4814785;29;20117;-68
2022/04/04 01:37:58;;;;;;;10.18;5.88;;;;;;;-1.08;65.73;101278.25;4827854;29;20031;-68
2022/04/04 01:40:23;;;;;;;8.20;5.82;;;;;;;-1.09;65.94;101279.28;4810269;29;20071;-68
2022/04/04 01:42:53;;;;;;;10.30;5.80;;;;;;;-1.09;65.83;101271.09;4810900;29;20127;-68
2022/04/04 01:46:23;;;;;;;12.50;6.13;;;;;;;-1.13;65.90;101261.66;4811123;29;20030;-68
2022/04/04 01:48:04;;;;;;;10.55;5.63;;;;;;;-1.09;65.77;101264.81;4800669;29;20045;-68
2022/04/04 01:50:29;;;;;;;10.30;5.70;;;;;;;-1.16;65.82;101262.88;4810561;29;20043;-68
2022/04/04 01:53:25;;;;;;;10.45;5.90;;;;;;;-1.16;65.60;101262.88;4825630;29;20173;-68
2022/04/04 01:55:44;;;;;;;11.48;5.82;;;;;;;-1.24;65.93;101263.03;4816814;29;20117;-68
2022/04/04 01:58:09;;;;;;;11.73;5.82;;;;;;;-1.28;66.28;101259.03;4810902;29;20062;-68
2022/04/04 02:00:35;;;;;;;9.43;5.70;;;;;;;-1.22;66.16;101263.69;4812153;29;20042;-68
2022/04/04 02:03:00;;;;;;;12.65;6.15;;;;;;;-1.29;65.90;101262.78;4829787;29;20034;-68
2022/04/04 02:05:26;;;;;;;10.98;6.43;;;;;;;-1.29;66.05;101262.78;4810727;29;20034;-67
2022/04/04 02:07:52;;;;;;;9.88;5.72;;;;;;;-1.30;66.04;101252.91;4825791;29;20392;-68
2022/04/04 02:10:17;;;;;;;9.88;5.80;;;;;;;-1.32;66.19;101252.28;4825681;29;20041;-68
2022/04/04 02:12:43;;;;;;;9.73;6.13;;;;;;;-1.37;66.15;101254.75;4807188;29;20046;-68
2022/04/04 02:15:08;;;;;;;10.18;5.43;;;;;;;-1.40;66.18;101242.34;4825564;29;20034;-67
2022/04/04 02:17:34;;;;;;;11.40;6.20;;;;;;;-1.42;66.39;101241.72;4810475;29;20035;-68
2022/04/04 02:20:00;;;;;;;10.07;5.82;;;;;;;-1.39;66.36;101245.94;4812505;29;20038;-68
2022/04/04 02:22:25;;;;;;;9.52;5.70;;;;;;;-1.45;66.51;101236.69;4808188;29;20034;-68
2022/04/04 02:24:51;;;;;;;11.10;5.80;;;;;;;-1.51;66.40;101237.44;4795517;29;20026;-67
2022/04/04 02:27:18;;;;;;;8.77;5.40;;;;;;;-1.48;66.31;101228.03;4827376;29;20058;-69
2022/04/04 02:29:43;;;;;;;9.70;6.05;;;;;;;-1.52;66.32;101227.59;4811639;29;20429;-68
2022/04/04 02:32:09;;;;;;;7.25;5.20;;;;;;;-1.50;66.23;101232.84;4812112;29;20047;-68
2022/04/04 02:34:35;;;;;;;8.35;5.00;;;;;;;-1.53;66.28;101234.09;4825359;29;20051;-68
2022/04/04 02:37:00;;;;;;;9.25;5.53;;;;;;;-1.62;66.51;101230.63;4810177;29;20045;-68
2022/04/04 02:39:25;;;;;;;8.60;5.15;;;;;;;-1.58;66.30;101226.50;4825625;29;20042;-68
2022/04/04 02:41:51;;;;;;;8.13;4.90;;;;;;;-1.65;66.57;101233.75;4813385;29;20030;-68
2022/04/04 02:44:16;;;;;;;8.00;4.85;;;;;;;-1.64;66.49;101231.91;4813773;29;20034;-68
2022/04/04 02:46:42;;;;;;;8.98;4.80;;;;;;;-1.68;66.67;101241.47;4813182;29;20488;-68
2022/04/04 02:49:07;;;;;;;8.65;4.90;;;;;;;-1.67;66.51;101233.13;4825499;29;20055;-68
2022/04/04 02:51:33;;;;;;;6.65;4.57;;;;;;;-1.70;66.65;101238.97;4843474;29;20046;-68
2022/04/04 02:53:59;;;;;;;9.50;4.68;;;;;;;-1.72;66.78;101232.03;4826160;29;20396;-68
2022/04/04 02:56:30;;;;;;;10.18;4.65;;;;;;;-1.73;66.87;101224.88;4832413;29;20042;-67
2022/04/04 02:59:00;;;;;;;8.43;4.90;;;;;;;-1.77;66.56;101229.88;4814345;29;20031;-67
2022/04/04 03:01:25;;;;;;;7.97;4.90;;;;;;;-1.81;66.68;101225.88;4812974;29;20042;-67
2022/04/04 03:03:51;;;;;;;8.45;4.72;;;;;;;-1.82;66.57;101229.63;4813508;29;20034;-67
2022/04/04 03:06:16;;;;;;;10.15;5.03;;;;;;;-1.80;66.36;101222.09;4812910;29;20026;-68
2022/04/04 03:08:42;;;;;;;6.55;4.35;;;;;;;-1.81;66.47;101210.38;4812922;29;20034;-67
2022/04/04 03:11:07;;;;;;;8.05;4.55;;;;;;;-1.85;66.44;101213.69;4801369;29;20050;-68
2022/04/04 03:13:33;;;;;;;10.15;4.93;;;;;;;-1.83;66.39;101207.00;4828225;29;20531;-68
2022/04/04 03:15:58;;;;;;;6.43;4.03;;;;;;;-1.88;66.26;101205.91;4829281;29;20603;-68
2022/04/04 03:18:25;;;;;;;9.77;4.65;;;;;;;-1.88;66.30;101192.28;4812971;29;20074;-68
2022/04/04 03:20:51;;;;;;;6.43;4.40;;;;;;;-1.90;66.06;101194.34;4829868;29;20063;-68
2022/04/04 03:23:17;;;;;;;8.02;4.40;;;;;;;-1.94;66.45;101201.25;4798769;29;20546;-68
2022/04/04 03:25:42;;;;;;;9.98;4.35;;;;;;;-1.96;66.30;101200.59;4827871;29;20035;-68
2022/04/04 03:28:08;;;;;;;8.57;4.60;;;;;;;-2.00;66.49;101196.59;4803258;29;20039;-68
2022/04/04 03:30:33;;;;;;;6.90;4.30;;;;;;;-1.99;66.46;101195.53;4811995;29;20067;-68
2022/04/04 03:32:59;;;;;;;8.52;4.30;;;;;;;-2.03;66.56;101189.66;4818041;29;20301;-68
2022/04/04 03:35:28;;;;;;;8.82;4.68;;;;;;;-2.02;66.83;101192.16;4812058;29;20042;-68
2022/04/04 03:37:53;;;;;;;9.32;4.93;;;;;;;-2.00;67.24;101188.41;4812873;29;20034;-68
2022/04/04 03:40:20;;;;;;;8.73;5.10;;;;;;;-2.03;67.11;101186.94;4827585;29;20579;-68
2022/04/04 03:42:51;;;;;;;7.43;4.20;;;;;;;-2.03;66.92;101178.75;4812785;29;20037;-68
2022/04/04 03:45:17;;;;;;;8.93;5.03;;;;;;;-2.03;66.74;101176.88;4813481;29;20042;-67
2022/04/04 03:47:43;;;;;;;9.23;5.18;;;;;;;-2.04;66.64;101177.06;4815099;29;20027;-68
2022/04/04 03:50:09;;;;;;;9.35;5.25;;;;;;;-2.06;66.90;101174.53;4830874;29;20038;-68
2022/04/04 03:52:35;;;;;;;10.77;5.63;;;;;;;-2.08;66.51;101173.88;4811674;29;20101;-68
2022/04/04 03:55:01;;;;;;;9.88;5.97;;;;;;;-2.09;67.32;101168.63;4785371;29;20074;-68
2022/04/04 03:57:27;;;;;;;10.07;5.15;;;;;;;-2.09;67.15;101166.78;4812589;29;20041;-67
2022/04/04 03:59:53;;;;;;;8.98;5.35;;;;;;;-2.10;67.50;101162.34;4827528;29;20027;-68
2022/04/04 04:02:18;;;;;;;12.65;6.32;;;;;;;-2.11;67.76;101159.84;4812165;29;20038;-67
2022/04/04 04:04:44;;;;;;;14.05;6.28;;;;;;;-2.12;67.97;101158.97;4811911;29;20453;-67
2022/04/04 04:07:14;;;;;;;12.10;6.75;;;;;;;-2.14;68.30;101161.06;4801436;29;20042;-67
2022/04/04 04:09:40;;;;;;;12.10;7.18;;;;;;;-2.12;68.64;101158.97;4782956;29;20125;-68
2022/04/04 04:12:06;;;;;;;14.35;7.55;;;;;;;-2.07;68.29;101159.22;4812035;29;20054;-68
2022/04/04 04:14:31;;;;;;;13.50;7.25;;;;;;;-2.06;68.40;101149.22;4829856;29;20030;-67
2022/04/04 04:16:57;;;;;;;9.75;6.93;;;;;;;-2.06;68.08;101146.50;4830527;29;20564;-67
2022/04/04 04:22:07;;;;;;;11.68;7.10;;;;;;;-2.09;67.63;101142.28;4827549;29;20034;-68
2022/04/04 04:24:32;;;;;;;11.68;7.20;;;;;;;-2.08;67.94;101137.66;4827167;29;20042;-68
2022/04/04 04:26:58;;;;;;;10.88;6.80;;;;;;;-2.08;67.99;101148.56;4801069;29;20039;-67
2022/04/04 04:29:23;;;;;;;11.85;6.85;;;;;;;-2.07;68.03;101140.19;4826754;29;20034;-68
2022/04/04 04:31:49;;;;;;;11.88;7.40;;;;;;;-2.11;67.99;101132.63;4811855;29;20072;-67
2022/04/04 04:34:14;;;;;;;13.27;7.13;;;;;;;-2.12;68.07;101142.63;4820653;29;20038;-68
2022/04/04 04:36:40;;;;;;;9.88;6.93;;;;;;;-2.11;67.81;101141.63;4811440;29;20049;-67
2022/04/04 04:39:09;;;;;;;11.63;7.38;;;;;;;-2.17;67.60;101134.25;4813301;29;20030;-68
2022/04/04 04:41:35;;;;;;;11.15;7.15;;;;;;;-2.16;67.82;101140.53;4802474;29;20046;-68
2022/04/04 04:44:05;;;;;;;12.82;7.07;;;;;;;-2.20;68.10;101145.53;4809639;29;20042;-67
2022/04/04 04:46:33;;;;;;;13.50;8.93;;;;;;;-2.19;67.66;101141.75;4831820;29;20037;-68
2022/04/04 04:48:59;;;;;;;13.80;10.30;;;;;;;-2.21;67.77;101126.66;4809960;29;20462;-68
2022/04/04 04:51:24;;;;;;;14.48;9.77;;;;;;;-2.25;67.91;101134.38;4826396;29;20042;-68
2022/04/04 04:53:50;;;;;;;17.20;10.43;;;;;;;-2.24;67.91;101138.75;4819558;29;20516;-68
2022/04/04 04:56:15;;;;;;;14.00;9.75;;;;;;;-2.25;67.73;101142.53;4784393;29;20031;-70
2022/04/04 04:58:41;;;;;;;10.80;8.48;;;;;;;-2.27;67.78;101133.72;4813106;29;20030;-70
2022/04/04 05:01:06;;;;;;;13.23;9.20;;;;;;;-2.25;68.12;101134.38;4789614;29;20049;-70
2022/04/04 05:03:34;;;;;;;16.45;9.65;;;;;;;-2.31;68.22;101135.16;4811047;29;20045;-70
2022/04/04 05:06:00;;;;;;;12.75;8.60;;;;;;;-2.30;68.15;101125.94;4811551;29;20036;-70
2022/04/04 05:08:26;;;;;;;12.20;8.57;;;;;;;-2.36;68.45;101129.44;4812070;29;20030;-70
2022/04/04 05:10:52;;;;;;;11.55;8.50;;;;;;;-2.34;68.42;101127.34;4824664;29;20068;-69
2022/04/04 05:13:17;;;;;;;13.02;8.30;;;;;;;-2.36;68.50;101134.91;4826356;29;20061;-70
2022/04/04 05:15:44;;;;;;;13.30;8.40;;;;;;;-2.39;68.73;101132.56;4827331;29;20050;-69
2022/04/04 05:18:09;;;;;;;11.50;7.97;;;;;;;-2.37;68.77;101127.75;4826347;29;20400;-70
2022/04/04 05:20:35;;;;;;;11.50;7.50;;;;;;;-2.43;68.68;101120.38;4814037;29;20035;-69
2022/04/04 05:23:00;;;;;;;13.20;8.88;;;;;;;-2.45;68.89;101125.16;4826313;29;20046;-70
2022/04/04 05:25:26;;;;;;;14.85;10.93;;;;;;;-2.44;68.55;101118.69;4826149;29;20031;-70
2022/04/04 05:27:52;;;;;;;14.65;9.90;;;;;;;-2.49;68.89;101125.53;4811088;29;20046;-69
2022/04/04 05:30:18;;;;;;;14.60;9.88;;;;;;;-2.47;68.85;101128.09;4810835;29;20041;-69
2022/04/04 05:32:44;;;;;;;14.52;9.85;;;;;;;-2.48;68.75;101132.69;4816348;29;20034;-69
2022/04/04 05:35:12;;;;;;;12.23;9.07;;;;;;;-2.48;68.73;101131.81;4833141;29;20575;-70
2022/04/04 05:37:38;;;;;;;12.68;9.40;;;;;;;-2.52;68.99;101136.81;4810343;29;20077;-70
2022/04/04 05:40:04;;;;;;;15.10;9.35;;;;;;;-2.52;68.78;101134.09;4806954;29;20042;-70
2022/04/04 05:42:30;;;;;;;15.77;9.10;;;;;;;-2.52;69.01;101128.66;4794635;29;20058;-69
2022/04/04 05:44:55;;;;;;;13.80;9.13;;;;;;;-2.50;68.60;101133.91;4810438;29;20389;-70
2022/04/04 05:47:21;;;;;;;15.25;9.38;;;;;;;-2.54;69.11;101136.16;4796039;29;20041;-70
2022/04/04 05:49:48;;;;;;;13.80;9.10;;;;;;;-2.57;69.08;101133.81;4810385;29;20097;-70
2022/04/04 05:52:15;;;;;;;13.02;9.13;;;;;;;-2.53;69.02;101124.25;4807881;29;20567;-70
2022/04/04 05:54:54;;;;;;;14.05;8.82;;;;;;;-2.51;69.17;101127.63;4825881;29;20094;-70
2022/04/04 05:57:22;;;;;;;16.30;9.43;;;;;;;-2.51;69.45;101126.75;4812565;29;20038;-70
2022/04/04 05:59:47;;;;;;;14.27;8.20;;;;;;;-2.47;69.37;101125.38;4811743;29;20549;-70
2022/04/04 06:02:13;;;;;;;12.32;8.50;;;;;;;-2.48;69.55;101115.50;4814639;29;20034;-69
2022/04/04 06:04:38;;;;;;;13.77;8.45;;;;;;;-2.35;69.29;101126.53;4811524;29;20488;-70
2022/04/04 06:07:04;;;;;;;12.63;7.97;;;;;;;-2.34;69.48;101132.78;4795688;29;20048;-70
2022/04/04 06:09:30;;;;;;;12.95;7.90;;;;;;;-2.28;69.54;101127.44;4797683;29;20257;-70
2022/04/04 06:11:55;;;;;;;15.77;8.38;;;;;;;-2.21;70.00;101126.66;4810287;29;20034;-70
2022/04/04 06:14:21;;;;;;;13.90;7.95;;;;;;;-2.13;70.74;101118.34;4810514;29;20083;-70
2022/04/04 06:16:46;;;;;;;11.77;7.82;;;;;;;-2.05;70.72;101118.22;4811005;29;20038;-70
2022/04/04 06:19:12;;;;;;;12.70;7.70;;;;;;;-1.97;71.44;101117.25;4792653;29;20479;-70
2022/04/04 06:21:37;;;;;;;13.40;8.13;;;;;;;-1.87;71.04;101115.00;4813713;29;20038;-77
2022/04/04 06:24:03;;;;;;;9.50;6.63;;;;;;;-1.75;70.99;101115.31;4810691;29;20030;-70
2022/04/04 06:26:30;;;;;;;9.50;6.78;;;;;;;-1.64;70.43;101109.34;4822661;29;20053;-75
2022/04/04 06:28:56;;;;;;;11.07;7.60;;;;;;;-1.51;71.19;101112.13;4818021;29;20026;-71
2022/04/04 06:31:21;;;;;;;10.73;6.90;;;;;;;-1.37;70.12;101119.31;4830756;29;20430;-71
2022/04/04 06:33:47;;;;;;;13.55;7.25;;;;;;;-1.23;70.21;101117.53;4829953;29;20034;-71
2022/04/04 06:36:12;;;;;;;10.25;6.70;;;;;;;-1.07;69.56;101121.81;4829775;29;20030;-71
2022/04/04 06:38:38;;;;;;;13.27;7.05;;;;;;;-0.92;71.68;101111.59;4843963;29;20377;-71
2022/04/04 06:41:04;;;;;;;10.50;6.50;;;;;;;-0.74;71.68;101113.75;4828412;29;20050;-71
2022/04/04 06:43:30;;;;;;;10.45;6.60;;;;;;;-0.55;72.46;101112.13;4828533;29;20301;-71
2022/04/04 06:45:56;;;;;;;8.75;6.07;;;;;;;-0.37;72.83;101113.44;4829792;29;20042;-71
2022/04/04 06:48:23;;;;;;;10.68;6.50;;;;;;;-0.18;74.25;101104.44;4828332;29;20041;-72
2022/04/04 06:50:49;;;;;;;8.45;5.95;;;;;;;0.03;72.61;101102.53;4812321;29;20049;-71
2022/04/04 06:53:14;;;;;;;7.95;5.65;;;;;;;0.23;70.83;101103.38;4826304;29;20027;-71
2022/04/04 06:55:40;;;;;;;10.70;5.90;;;;;;;0.43;69.92;101095.16;4823142;29;20498;-72
2022/04/04 06:58:06;;;;;;;9.68;5.70;;;;;;;0.64;69.41;101103.13;4830890;29;20059;-72
2022/04/04 07:00:32;;;;;;;7.45;5.53;;;;;;;0.83;71.85;101103.25;4829375;29;20026;-72
2022/04/04 07:02:58;;;;;;;9.82;5.80;;;;;;;1.05;71.20;101103.81;4828206;29;20064;-72
2022/04/04 07:05:24;;;;;;;8.20;5.63;;;;;;;1.25;71.94;101100.97;4828384;29;20500;-72
2022/04/04 07:07:49;;;;;;;9.68;5.75;;;;;;;1.41;71.93;101105.94;4828451;29;20395;-72
2022/04/04 07:10:15;;;;;;;7.90;6.18;;;;;;;1.57;74.14;101104.59;4829179;29;20031;-72
2022/04/04 07:12:41;;;;;;;9.07;5.80;;;;;;;1.72;70.24;101102.38;4826376;29;20492;-72
2022/04/04 07:15:08;;;;;;;8.57;5.82;;;;;;;1.91;69.75;101097.81;4828055;29;20039;-72
2022/04/04 07:17:34;;;;;;;8.65;5.65;;;;;;;2.08;68.42;101097.28;4813005;29;20065;-72
2022/04/04 07:19:59;;;;;;;8.77;5.53;;;;;;;2.27;68.74;101101.75;4827765;29;20049;-73
2022/04/04 07:22:25;;;;;;;7.90;5.65;;;;;;;2.46;68.32;101102.63;4831725;29;20506;-72
2022/04/04 07:24:50;;;;;;;7.13;5.50;;;;;;;2.64;67.77;101093.56;4825650;29;20039;-72
2022/04/04 07:27:16;;;;;;;7.82;5.65;;;;;;;2.83;66.79;101089.78;4825987;29;20038;-72
2022/04/04 07:29:42;;;;;;;8.52;5.53;;;;;;;3.03;67.65;101096.94;4827647;29;20038;-72
2022/04/04 07:32:09;;;;;;;7.20;5.22;;;;;;;3.23;66.15;101080.22;4829756;29;20035;-71
2022/04/04 07:34:35;;;;;;;9.80;5.40;;;;;;;3.45;64.77;101083.28;4837651;29;20035;-71
2022/04/04 07:37:01;;;;;;;6.90;5.03;;;;;;;3.64;64.27;101087.66;4812802;29;20128;-71
2022/04/04 07:39:26;;;;;;;7.25;5.40;;;;;;;3.84;65.73;101090.09;4806128;29;20198;-71
2022/04/04 07:41:52;;;;;;;8.50;5.28;;;;;;;4.03;67.09;101085.38;4827696;29;20091;-71
2022/04/04 07:44:18;;;;;;;9.30;5.70;;;;;;;4.19;64.02;101079.16;4828069;29;20070;-71
2022/04/04 07:46:43;;;;;;;8.07;5.20;;;;;;;4.35;63.19;101074.88;4812743;29;20525;-71
2022/04/04 07:49:09;;;;;;;7.82;5.35;;;;;;;4.51;64.17;101075.22;4813073;29;20046;-71
2022/04/04 07:51:35;;;;;;;7.88;5.10;;;;;;;4.68;62.82;101071.50;4816908;29;20640;-71
2022/04/04 07:54:00;;;;;;;6.95;5.10;;;;;;;4.87;62.12;101074.09;4794321;29;20047;-71
2022/04/04 07:56:26;;;;;;;7.05;5.28;;;;;;;5.03;62.35;101076.09;4808562;29;20042;-71
2022/04/04 07:58:51;;;;;;;8.13;4.90;;;;;;;5.22;61.68;101073.19;4824600;29;20050;-71
2022/04/04 08:01:17;;;;;;;6.35;4.65;;;;;;;5.37;61.36;101073.47;4811948;29;20061;-71
2022/04/04 08:03:42;;;;;;;6.57;5.13;;;;;;;5.51;61.55;101069.34;4809412;29;20046;-71
2022/04/04 08:06:08;;;;;;;7.25;4.65;;;;;;;5.64;60.40;101068.19;4815557;29;20102;-71
2022/04/04 08:08:33;;;;;;;8.32;4.93;;;;;;;5.77;60.88;101065.13;4812023;29;20167;-71
2022/04/04 08:11:00;;;;;;;7.55;4.18;;;;;;;5.91;59.98;101057.38;4788180;29;20045;-71
2022/04/04 08:13:25;;;;;;;8.38;5.00;;;;;;;6.04;61.88;101062.63;4806167;29;20492;-71
2022/04/04 08:15:52;;;;;;;6.20;4.43;;;;;;;6.21;60.13;101050.72;4812934;29;20054;-71
2022/04/04 08:18:18;;;;;;;8.52;4.55;;;;;;;6.36;60.30;101053.72;4831197;29;20038;-71
2022/04/04 08:20:43;;;;;;;8.07;4.55;;;;;;;6.54;59.88;101051.75;4812840;29;20030;-71
2022/04/04 08:23:09;;;;;;;7.60;5.22;;;;;;;6.70;61.72;101042.59;4827327;29;20034;-71
2022/04/04 08:25:35;;;;;;;7.63;5.07;;;;;;;6.87;60.16;101048.91;4820212;29;20110;-71
2022/04/04 08:28:01;;;;;;;6.57;4.30;;;;;;;7.03;59.98;101036.13;4800081;29;20109;-71
2022/04/04 08:30:26;;;;;;;7.45;4.15;;;;;;;7.24;59.29;101042.72;4808436;29;20027;-71
2022/04/04 08:32:52;;;;;;;6.28;4.10;;;;;;;7.47;58.73;101038.03;4822003;29;20102;-71
2022/04/04 08:35:18;;;;;;;10.45;4.60;;;;;;;7.64;58.09;101037.91;4811045;29;20031;-71
2022/04/04 08:37:43;;;;;;;8.38;4.53;;;;;;;7.86;58.02;101035.06;4802778;29;20087;-71
2022/04/04 08:40:11;;;;;;;10.00;4.80;;;;;;;8.08;58.57;101035.81;4811649;29;20058;-71
2022/04/04 08:42:37;;;;;;;6.53;4.55;;;;;;;8.31;57.62;101040.13;4789873;29;20034;-71
2022/04/04 08:45:03;;;;;;;7.05;4.40;;;;;;;8.52;56.77;101035.56;4815239;29;20041;-71
2022/04/04 08:47:29;;;;;;;7.53;4.43;;;;;;;8.70;56.11;101032.38;4786006;29;20030;-71
2022/04/04 08:49:55;;;;;;;9.45;4.00;;;;;;;8.90;55.50;101031.63;4791482;29;20039;-71
2022/04/04 08:52:21;;;;;;;8.02;3.88;;;;;;;9.08;56.23;101032.25;4773866;29;20038;-72
2022/04/04 08:54:47;;;;;;;7.47;4.47;;;;;;;9.22;55.78;101038.13;4811653;29;20050;-71
2022/04/04 08:57:12;;;;;;;8.15;3.70;;;;;;;9.36;54.93;101033.72;4811444;29;20041;-71
2022/04/04 08:59:40;;;;;;;6.95;3.95;;;;;;;9.44;55.06;101030.41;4801308;29;20549;-71
2022/04/04 09:02:05;;;;;;;4.60;3.85;;;;;;;9.55;53.83;101028.50;4811733;29;20042;-71
2022/04/04 09:04:33;;;;;;;8.52;4.30;;;;;;;9.61;54.42;101025.47;4815230;29;20053;-71
2022/04/04 09:07:03;;;;;;;5.80;3.90;;;;;;;9.67;54.44;101020.75;4809045;29;20073;-71
2022/04/04 09:09:43;;;;;;;8.25;3.97;;;;;;;9.77;54.08;101015.22;4811465;29;20050;-71
2022/04/04 09:12:09;;;;;;;6.22;3.70;;;;;;;9.83;54.06;101016.03;4814947;29;20038;-72
2022/04/04 09:14:41;;;;;;;5.28;3.75;;;;;;;9.87;54.80;101017.16;4825817;29;20046;-71
2022/04/04 09:17:08;;;;;;;6.68;3.95;;;;;;;9.91;54.59;101014.66;4817390;29;20046;-71
2022/04/04 09:19:33;;;;;;;7.22;3.70;;;;;;;9.97;53.33;101008.00;4809742;29;20034;-71
2022/04/04 09:22:10;;;;;;;6.70;3.40;;;;;;;10.01;53.94;101009.13;4810995;29;20035;-71
2022/04/04 09:24:57;;;;;;;6.72;3.40;;;;;;;10.07;53.15;101005.22;4811681;29;20046;-72
2022/04/04 09:27:33;;;;;;;4.13;2.60;;;;;;;10.16;53.31;101005.50;4826501;29;20058;-72
2022/04/04 09:30:01;;;;;;;3.78;2.75;;;;;;;10.24;53.31;101000.22;4792673;29;20064;-72
2022/04/04 09:32:39;;;;;;;4.32;2.95;;;;;;;10.38;53.43;101002.44;4814189;29;20030;-72
2022/04/04 09:35:10;;;;;;;4.20;2.95;;;;;;;10.51;53.52;101002.69;4815860;29;20098;-72
2022/04/04 09:37:36;;;;;;;6.57;3.05;;;;;;;10.71;53.84;100995.41;4813459;29;20045;-72
2022/04/04 09:40:06;;;;;;;7.60;3.85;;;;;;;10.84;53.38;100997.59;4814757;29;20057;-72
2022/04/04 09:42:32;;;;;;;8.18;3.55;;;;;;;11.09;55.14;100995.81;4826814;29;20040;-70
2022/04/04 09:45:09;;;;;;;5.90;3.20;;;;;;;11.24;53.00;100994.91;4827020;29;20561;-69
2022/04/04 09:47:53;;;;;;;6.28;3.63;;;;;;;11.46;52.59;100998.09;4796172;29;20491;-69
2022/04/04 09:50:47;;;;;;;6.82;4.30;;;;;;;11.67;50.94;100995.16;4826829;29;20043;-69
2022/04/04 09:53:14;;;;;;;7.80;4.00;;;;;;;11.82;51.01;100995.06;4825448;29;20523;-69
2022/04/04 09:55:44;;;;;;;6.10;3.50;;;;;;;11.97;51.49;101002.47;4819954;29;20047;-69
2022/04/04 09:58:14;;;;;;;7.15;4.20;;;;;;;12.10;51.12;100996.22;4811949;29;20041;-69
2022/04/04 10:00:40;;;;;;;8.10;4.13;;;;;;;12.25;51.15;100998.84;4802200;29;20027;-69
2022/04/04 10:03:07;;;;;;;6.40;3.70;;;;;;;12.40;50.58;100988.72;4812007;29;20041;-69
2022/04/04 10:05:32;;;;;;;8.77;4.50;;;;;;;12.53;50.60;100983.25;4815905;29;20031;-69
2022/04/04 10:07:58;;;;;;;7.15;4.35;;;;;;;12.68;50.22;100990.63;4818326;29;20071;-69
2022/04/04 10:10:25;;;;;;;4.15;3.15;;;;;;;12.79;50.56;100977.41;4814304;29;20034;-69
2022/04/04 10:12:51;;;;;;;5.70;4.45;;;;;;;12.93;49.53;100975.53;4786750;29;20041;-69
2022/04/04 10:15:17;;;;;;;6.30;3.90;;;;;;;13.07;49.60;100975.63;4808183;29;20508;-69
2022/04/04 10:17:42;;;;;;;8.25;4.10;;;;;;;13.17;48.98;100967.09;4798706;29;20050;-69
2022/04/04 10:20:09;;;;;;;6.78;3.25;;;;;;;13.31;48.98;100975.59;4814079;29;20562;-69
2022/04/04 10:22:34;;;;;;;7.60;3.97;;;;;;;13.43;48.39;100975.16;4798971;29;20030;-69
2022/04/04 10:25:02;;;;;;;7.72;4.50;;;;;;;13.56;48.81;100970.75;4814047;29;20053;-69
2022/04/04 10:27:29;;;;;;;7.78;5.32;;;;;;;13.67;48.33;100965.84;4814214;29;20038;-69
2022/04/04 10:30:08;;;;;;;7.50;4.50;;;;;;;13.78;47.99;100961.75;4814311;29;20030;-69
2022/04/04 10:32:34;;;;;;;7.03;4.65;;;;;;;13.91;47.09;100972.16;4818955;29;20034;-69
2022/04/04 10:35:12;;;;;;;6.57;4.88;;;;;;;14.00;46.14;100963.91;4819498;29;20045;-69
2022/04/04 10:37:44;;;;;;;7.03;4.38;;;;;;;14.13;46.43;100962.28;4819527;29;20038;-69
2022/04/04 10:40:19;;;;;;;8.27;4.50;;;;;;;14.24;46.67;100959.00;4798453;29;20059;-69
2022/04/04 10:42:46;;;;;;;7.68;5.20;;;;;;;14.36;46.77;100960.47;4814445;29;20070;-69
2022/04/04 10:45:13;;;;;;;7.72;5.05;;;;;;;14.43;46.24;100946.88;4813719;29;20030;-73
2022/04/04 10:47:42;;;;;;;7.75;4.47;;;;;;;14.51;44.95;100954.56;4813719;29;20626;-73
2022/04/04 10:50:37;;;;;;;6.70;3.85;;;;;;;14.60;44.80;100944.38;4813442;29;20031;-73
2022/04/04 10:53:03;;;;;;;5.30;4.07;;;;;;;14.69;44.96;100936.06;4818716;29;20471;-73
2022/04/04 10:55:38;;;;;;;7.55;4.25;;;;;;;14.77;44.79;100935.34;4797679;29;20163;-73
2022/04/04 10:58:16;;;;;;;6.72;4.30;;;;;;;14.84;45.55;100934.91;4828683;29;20070;-73
2022/04/04 11:01:07;;;;;;;7.10;3.78;;;;;;;15.01;45.99;100928.66;4833318;29;20057;-73
2022/04/04 11:03:40;;;;;;;9.32;4.80;;;;;;;15.12;44.74;100921.69;4822432;29;20030;-73
2022/04/04 11:09:12;;;;;;;7.70;5.05;;;;;;;15.44;44.32;100911.47;4823042;29;20046;-73
2022/04/04 11:11:45;;;;;;;8.95;5.38;;;;;;;15.57;43.47;100908.59;4811863;29;20050;-73
2022/04/04 11:14:17;;;;;;;;;;;;;;;15.71;42.81;100905.78;4812612;29;20096;-73
2022/04/04 11:20:00;;;;;;;7.90;4.40;;;;;;;16.02;42.90;100893.75;4828022;29;20392;-73
2022/04/04 11:22:31;;;;;;;6.20;4.05;;;;;;;16.17;43.08;100896.13;4813691;29;20589;-77
2022/04/04 11:25:03;;;;;;;5.68;4.38;;;;;;;16.33;41.42;100892.91;4813166;29;20071;-72
2022/04/04 11:27:28;;;;;;;7.20;4.90;;;;;;;16.44;39.89;100885.88;4828443;29;20042;-72
2022/04/04 11:29:54;;;;;;;6.97;3.60;;;;;;;16.55;42.53;100895.63;4832989;29;20037;-72
2022/04/04 11:32:34;;;;;;;6.72;3.40;;;;;;;16.69;40.95;100889.91;4830128;29;20073;-72